sensor_id;sensor_type;location;lat;lon;timestamp;temperature;humidity
1179;DHT22;578;48.408;10.004;2022-10-30T00:00:24;10.10;99.90
1179;DHT22;578;48.408;10.004;2022-10-30T00:02:51;10.10;99.90
1179;DHT22;578;48.408;10.004;2022-10-30T00:05:18;10.10;99.90
1179;DHT22;578;48.408;10.004;2022-10-30T00:07:47;10.10;99.90
1179;DHT22;578;48.408;10.004;2022-10-30T00:10:15;10.10;99.90
1179;DHT22;578;48.408;10.004;2022-10-30T00:12:42;10.10;99.90
1179;DHT22;578;48.408;10.004;2022-10-30T00:15:09;10.00;99.90
1179;DHT22;578;48.408;10.004;2022-10-30T00:17:36;10.00;99.90
1179;DHT22;578;48.408;10.004;2022-10-30T00:20:04;10.20;99.90
1179;DHT22;578;48.408;10.004;2022-10-30T00:22:31;10.10;99.90
1179;DHT22;578;48.408;10.004;2022-10-30T00:24:59;10.10;99.90
1179;DHT22;578;48.408;10.004;2022-10-30T00:27:26;10.10;99.90
1179;DHT22;578;48.408;10.004;2022-10-30T00:29:53;10.00;99.90
1179;DHT22;578;48.408;10.004;2022-10-30T00:32:19;10.00;99.90
1179;DHT22;578;48.408;10.004;2022-10-30T00:34:46;10.00;99.90
1179;DHT22;578;48.408;10.004;2022-10-30T00:37:13;9.90;99.90
1179;DHT22;578;48.408;10.004;2022-10-30T00:39:39;9.80;99.90
1179;DHT22;578;48.408;10.004;2022-10-30T00:42:10;9.80;99.90
1179;DHT22;578;48.408;10.004;2022-10-30T00:44:41;9.80;99.90
1179;DHT22;578;48.408;10.004;2022-10-30T00:47:13;9.80;99.90
1179;DHT22;578;48.408;10.004;2022-10-30T00:49:48;9.90;99.90
1179;DHT22;578;48.408;10.004;2022-10-30T00:52:16;9.90;99.90
1179;DHT22;578;48.408;10.004;2022-10-30T00:54:43;9.90;99.90
1179;DHT22;578;48.408;10.004;2022-10-30T00:57:11;9.90;99.90
1179;DHT22;578;48.408;10.004;2022-10-30T00:59:39;9.80;99.90
1179;DHT22;578;48.408;10.004;2022-10-30T01:02:07;9.80;99.90
1179;DHT22;578;48.408;10.004;2022-10-30T01:04:36;9.80;99.90
1179;DHT22;578;48.408;10.004;2022-10-30T01:07:08;9.80;99.90
1179;DHT22;578;48.408;10.004;2022-10-30T01:09:36;9.70;99.90
1179;DHT22;578;48.408;10.004;2022-10-30T01:12:03;9.70;99.90
1179;DHT22;578;48.408;10.004;2022-10-30T01:14:33;9.70;99.90
1179;DHT22;578;48.408;10.004;2022-10-30T01:17:11;9.70;99.90
1179;DHT22;578;48.408;10.004;2022-10-30T01:19:46;9.60;99.90
1179;DHT22;578;48.408;10.004;2022-10-30T01:22:32;9.50;99.90
1179;DHT22;578;48.408;10.004;2022-10-30T01:25:10;9.50;99.90
1179;DHT22;578;48.408;10.004;2022-10-30T01:27:46;9.50;99.90
1179;DHT22;578;48.408;10.004;2022-10-30T01:30:22;9.50;99.90
1179;DHT22;578;48.408;10.004;2022-10-30T01:33:00;9.50;99.90
1179;DHT22;578;48.408;10.004;2022-10-30T01:35:33;9.30;99.90
1179;DHT22;578;48.408;10.004;2022-10-30T01:38:06;9.30;99.90
1179;DHT22;578;48.408;10.004;2022-10-30T01:40:35;9.30;99.90
1179;DHT22;578;48.408;10.004;2022-10-30T01:43:02;9.40;99.90
1179;DHT22;578;48.408;10.004;2022-10-30T01:45:43;9.30;99.90
1179;DHT22;578;48.408;10.004;2022-10-30T01:48:24;9.30;99.90
1179;DHT22;578;48.408;10.004;2022-10-30T01:50:58;9.30;99.90
1179;DHT22;578;48.408;10.004;2022-10-30T01:53:41;9.30;99.90
1179;DHT22;578;48.408;10.004;2022-10-30T01:56:17;9.40;99.90
1179;DHT22;578;48.408;10.004;2022-10-30T01:58:50;9.30;99.90
1179;DHT22;578;48.408;10.004;2022-10-30T02:01:22;9.40;99.90
1179;DHT22;578;48.408;10.004;2022-10-30T02:03:50;9.40;99.90
1179;DHT22;578;48.408;10.004;2022-10-30T02:06:17;9.50;99.90
1179;DHT22;578;48.408;10.004;2022-10-30T02:08:43;9.50;99.90
1179;DHT22;578;48.408;10.004;2022-10-30T02:11:10;9.50;99.90
1179;DHT22;578;48.408;10.004;2022-10-30T02:13:37;9.40;99.90
1179;DHT22;578;48.408;10.004;2022-10-30T02:16:05;9.40;99.90
1179;DHT22;578;48.408;10.004;2022-10-30T02:18:33;9.30;99.90
1179;DHT22;578;48.408;10.004;2022-10-30T02:21:01;9.20;99.90
1179;DHT22;578;48.408;10.004;2022-10-30T02:23:28;9.20;99.90
1179;DHT22;578;48.408;10.004;2022-10-30T02:25:55;9.10;99.90
1179;DHT22;578;48.408;10.004;2022-10-30T02:28:22;9.10;99.90
1179;DHT22;578;48.408;10.004;2022-10-30T02:30:49;9.10;99.90
1179;DHT22;578;48.408;10.004;2022-10-30T02:33:15;9.10;99.90
1179;DHT22;578;48.408;10.004;2022-10-30T02:35:42;9.10;99.90
1179;DHT22;578;48.408;10.004;2022-10-30T02:38:10;9.10;99.90
1179;DHT22;578;48.408;10.004;2022-10-30T02:40:37;9.10;99.90
1179;DHT22;578;48.408;10.004;2022-10-30T02:43:03;9.20;99.90
1179;DHT22;578;48.408;10.004;2022-10-30T02:45:30;9.20;99.90
1179;DHT22;578;48.408;10.004;2022-10-30T02:47:58;9.10;99.90
1179;DHT22;578;48.408;10.004;2022-10-30T02:50:25;9.00;99.90
1179;DHT22;578;48.408;10.004;2022-10-30T02:52:52;9.00;99.90
1179;DHT22;578;48.408;10.004;2022-10-30T02:55:20;8.90;99.90
1179;DHT22;578;48.408;10.004;2022-10-30T02:57:47;9.00;99.90
1179;DHT22;578;48.408;10.004;2022-10-30T03:00:14;9.00;99.90
1179;DHT22;578;48.408;10.004;2022-10-30T03:02:41;9.00;99.90
1179;DHT22;578;48.408;10.004;2022-10-30T03:05:08;9.00;99.90
1179;DHT22;578;48.408;10.004;2022-10-30T03:07:35;8.90;99.90
1179;DHT22;578;48.408;10.004;2022-10-30T03:10:02;8.80;99.90
1179;DHT22;578;48.408;10.004;2022-10-30T03:12:30;8.80;99.90
1179;DHT22;578;48.408;10.004;2022-10-30T03:14:57;8.70;99.90
1179;DHT22;578;48.408;10.004;2022-10-30T03:17:24;8.70;99.90
1179;DHT22;578;48.408;10.004;2022-10-30T03:19:51;8.70;99.90
1179;DHT22;578;48.408;10.004;2022-10-30T03:22:17;8.70;99.90
1179;DHT22;578;48.408;10.004;2022-10-30T03:24:44;8.70;99.90
1179;DHT22;578;48.408;10.004;2022-10-30T03:27:11;8.60;99.90
1179;DHT22;578;48.408;10.004;2022-10-30T03:29:39;8.50;99.90
1179;DHT22;578;48.408;10.004;2022-10-30T03:32:08;8.60;99.90
1179;DHT22;578;48.408;10.004;2022-10-30T03:34:35;8.40;99.90
1179;DHT22;578;48.408;10.004;2022-10-30T03:37:02;8.50;99.90
1179;DHT22;578;48.408;10.004;2022-10-30T03:39:28;8.40;99.90
1179;DHT22;578;48.408;10.004;2022-10-30T03:41:55;8.50;99.90
1179;DHT22;578;48.408;10.004;2022-10-30T03:44:22;8.50;99.90
1179;DHT22;578;48.408;10.004;2022-10-30T03:46:50;8.50;99.90
1179;DHT22;578;48.408;10.004;2022-10-30T03:49:17;8.40;99.90
1179;DHT22;578;48.408;10.004;2022-10-30T03:51:43;8.40;99.90
1179;DHT22;578;48.408;10.004;2022-10-30T03:54:10;8.40;99.90
1179;DHT22;578;48.408;10.004;2022-10-30T03:56:37;8.20;99.90
1179;DHT22;578;48.408;10.004;2022-10-30T03:59:03;8.20;99.90
1179;DHT22;578;48.408;10.004;2022-10-30T04:01:30;8.40;99.90
1179;DHT22;578;48.408;10.004;2022-10-30T04:03:58;8.30;99.90
1179;DHT22;578;48.408;10.004;2022-10-30T04:06:25;8.30;99.90
1179;DHT22;578;48.408;10.004;2022-10-30T04:08:53;8.20;99.90
1179;DHT22;578;48.408;10.004;2022-10-30T04:11:20;8.20;99.90
1179;DHT22;578;48.408;10.004;2022-10-30T04:13:46;8.10;99.90
1179;DHT22;578;48.408;10.004;2022-10-30T04:16:13;8.20;99.90
1179;DHT22;578;48.408;10.004;2022-10-30T04:18:40;8.20;99.90
1179;DHT22;578;48.408;10.004;2022-10-30T04:21:08;8.20;99.90
1179;DHT22;578;48.408;10.004;2022-10-30T04:23:34;8.10;99.90
1179;DHT22;578;48.408;10.004;2022-10-30T04:26:01;8.10;99.90
1179;DHT22;578;48.408;10.004;2022-10-30T04:28:28;8.10;99.90
1179;DHT22;578;48.408;10.004;2022-10-30T04:30:55;8.10;99.90
1179;DHT22;578;48.408;10.004;2022-10-30T04:33:22;8.10;99.90
1179;DHT22;578;48.408;10.004;2022-10-30T04:35:49;8.00;99.90
1179;DHT22;578;48.408;10.004;2022-10-30T04:38:17;8.00;99.90
1179;DHT22;578;48.408;10.004;2022-10-30T04:40:44;8.00;99.90
1179;DHT22;578;48.408;10.004;2022-10-30T04:43:12;8.00;99.90
1179;DHT22;578;48.408;10.004;2022-10-30T04:45:39;8.00;99.90
1179;DHT22;578;48.408;10.004;2022-10-30T04:48:08;8.10;99.90
1179;DHT22;578;48.408;10.004;2022-10-30T04:50:36;8.10;99.90
1179;DHT22;578;48.408;10.004;2022-10-30T04:53:04;8.00;99.90
1179;DHT22;578;48.408;10.004;2022-10-30T04:55:33;8.00;99.90
1179;DHT22;578;48.408;10.004;2022-10-30T04:58:00;7.90;99.90
1179;DHT22;578;48.408;10.004;2022-10-30T05:00:29;7.90;99.90
1179;DHT22;578;48.408;10.004;2022-10-30T05:02:58;7.90;99.90
1179;DHT22;578;48.408;10.004;2022-10-30T05:05:26;7.90;99.90
1179;DHT22;578;48.408;10.004;2022-10-30T05:07:53;8.00;99.90
1179;DHT22;578;48.408;10.004;2022-10-30T05:10:19;7.90;99.90
1179;DHT22;578;48.408;10.004;2022-10-30T05:12:49;7.90;99.90
1179;DHT22;578;48.408;10.004;2022-10-30T05:15:16;7.80;99.90
1179;DHT22;578;48.408;10.004;2022-10-30T05:17:43;7.80;99.90
1179;DHT22;578;48.408;10.004;2022-10-30T05:20:10;7.70;99.90
1179;DHT22;578;48.408;10.004;2022-10-30T05:22:37;7.80;99.90
1179;DHT22;578;48.408;10.004;2022-10-30T05:25:04;7.80;99.90
1179;DHT22;578;48.408;10.004;2022-10-30T05:27:31;7.80;99.90
1179;DHT22;578;48.408;10.004;2022-10-30T05:29:59;7.80;99.90
1179;DHT22;578;48.408;10.004;2022-10-30T05:32:26;7.60;99.90
1179;DHT22;578;48.408;10.004;2022-10-30T05:34:53;7.70;99.90
1179;DHT22;578;48.408;10.004;2022-10-30T05:37:19;7.60;99.90
1179;DHT22;578;48.408;10.004;2022-10-30T05:39:46;7.60;99.90
1179;DHT22;578;48.408;10.004;2022-10-30T05:42:13;7.70;99.90
1179;DHT22;578;48.408;10.004;2022-10-30T05:44:39;7.70;99.90
1179;DHT22;578;48.408;10.004;2022-10-30T05:47:09;7.70;99.90
1179;DHT22;578;48.408;10.004;2022-10-30T05:49:36;7.70;99.90
1179;DHT22;578;48.408;10.004;2022-10-30T05:52:03;7.60;99.90
1179;DHT22;578;48.408;10.004;2022-10-30T05:54:30;7.60;99.90
1179;DHT22;578;48.408;10.004;2022-10-30T05:56:57;7.60;99.90
1179;DHT22;578;48.408;10.004;2022-10-30T05:59:23;7.60;99.90
1179;DHT22;578;48.408;10.004;2022-10-30T06:01:50;7.60;99.90
1179;DHT22;578;48.408;10.004;2022-10-30T06:04:18;7.60;99.90
1179;DHT22;578;48.408;10.004;2022-10-30T06:06:45;7.70;99.90
1179;DHT22;578;48.408;10.004;2022-10-30T06:09:11;7.70;99.90
1179;DHT22;578;48.408;10.004;2022-10-30T06:11:38;7.70;99.90
1179;DHT22;578;48.408;10.004;2022-10-30T06:14:05;7.70;99.90
1179;DHT22;578;48.408;10.004;2022-10-30T06:16:32;7.70;99.90
1179;DHT22;578;48.408;10.004;2022-10-30T06:18:58;7.70;99.90
1179;DHT22;578;48.408;10.004;2022-10-30T06:21:26;7.70;99.90
1179;DHT22;578;48.408;10.004;2022-10-30T06:23:53;7.60;99.90
1179;DHT22;578;48.408;10.004;2022-10-30T06:26:20;7.60;99.90
1179;DHT22;578;48.408;10.004;2022-10-30T06:28:47;7.60;99.90
1179;DHT22;578;48.408;10.004;2022-10-30T06:31:13;7.70;99.90
1179;DHT22;578;48.408;10.004;2022-10-30T06:33:40;7.70;99.90
1179;DHT22;578;48.408;10.004;2022-10-30T06:36:07;7.90;99.90
1179;DHT22;578;48.408;10.004;2022-10-30T06:38:35;8.00;99.90
1179;DHT22;578;48.408;10.004;2022-10-30T06:41:02;8.00;99.90
1179;DHT22;578;48.408;10.004;2022-10-30T06:43:30;8.00;99.90
1179;DHT22;578;48.408;10.004;2022-10-30T06:45:57;8.10;99.90
1179;DHT22;578;48.408;10.004;2022-10-30T06:48:24;8.10;99.90
1179;DHT22;578;48.408;10.004;2022-10-30T06:50:53;8.20;99.90
1179;DHT22;578;48.408;10.004;2022-10-30T06:53:19;8.30;99.90
1179;DHT22;578;48.408;10.004;2022-10-30T06:55:54;8.40;99.90
1179;DHT22;578;48.408;10.004;2022-10-30T06:58:21;8.40;99.90
1179;DHT22;578;48.408;10.004;2022-10-30T07:00:48;8.50;99.90
1179;DHT22;578;48.408;10.004;2022-10-30T07:03:15;8.50;99.90
1179;DHT22;578;48.408;10.004;2022-10-30T07:05:41;8.60;99.90
1179;DHT22;578;48.408;10.004;2022-10-30T07:08:08;8.70;99.90
1179;DHT22;578;48.408;10.004;2022-10-30T07:10:35;8.80;99.90
1179;DHT22;578;48.408;10.004;2022-10-30T07:13:03;8.90;99.90
1179;DHT22;578;48.408;10.004;2022-10-30T07:15:30;9.00;99.90
1179;DHT22;578;48.408;10.004;2022-10-30T07:17:58;9.10;99.90
1179;DHT22;578;48.408;10.004;2022-10-30T07:20:26;9.30;99.90
1179;DHT22;578;48.408;10.004;2022-10-30T07:22:53;9.50;99.90
1179;DHT22;578;48.408;10.004;2022-10-30T07:25:20;9.70;99.90
1179;DHT22;578;48.408;10.004;2022-10-30T07:27:49;9.90;99.90
1179;DHT22;578;48.408;10.004;2022-10-30T07:30:19;11.00;99.90
1179;DHT22;578;48.408;10.004;2022-10-30T07:32:47;11.60;99.90
1179;DHT22;578;48.408;10.004;2022-10-30T07:35:21;11.30;99.90
1179;DHT22;578;48.408;10.004;2022-10-30T07:37:48;11.70;99.90
1179;DHT22;578;48.408;10.004;2022-10-30T07:40:14;13.10;99.90
1179;DHT22;578;48.408;10.004;2022-10-30T07:42:41;14.10;99.90
1179;DHT22;578;48.408;10.004;2022-10-30T07:45:08;14.80;99.90
1179;DHT22;578;48.408;10.004;2022-10-30T07:47:39;14.70;99.90
1179;DHT22;578;48.408;10.004;2022-10-30T07:50:06;15.20;99.90
1179;DHT22;578;48.408;10.004;2022-10-30T07:52:33;15.10;99.90
1179;DHT22;578;48.408;10.004;2022-10-30T07:55:00;15.70;99.90
1179;DHT22;578;48.408;10.004;2022-10-30T07:57:30;16.00;99.90
1179;DHT22;578;48.408;10.004;2022-10-30T07:59:56;16.10;99.90
1179;DHT22;578;48.408;10.004;2022-10-30T08:02:23;16.10;99.90
1179;DHT22;578;48.408;10.004;2022-10-30T08:04:51;16.40;99.90
1179;DHT22;578;48.408;10.004;2022-10-30T08:07:18;16.70;99.90
1179;DHT22;578;48.408;10.004;2022-10-30T08:09:45;16.80;99.90
1179;DHT22;578;48.408;10.004;2022-10-30T08:12:12;17.00;99.90
1179;DHT22;578;48.408;10.004;2022-10-30T08:14:39;17.30;99.90
1179;DHT22;578;48.408;10.004;2022-10-30T08:17:05;17.40;99.90
1179;DHT22;578;48.408;10.004;2022-10-30T08:19:35;17.80;99.90
1179;DHT22;578;48.408;10.004;2022-10-30T08:22:03;17.90;99.90
1179;DHT22;578;48.408;10.004;2022-10-30T08:24:30;17.60;99.90
1179;DHT22;578;48.408;10.004;2022-10-30T08:26:56;17.90;99.90
1179;DHT22;578;48.408;10.004;2022-10-30T08:29:23;18.00;99.90
1179;DHT22;578;48.408;10.004;2022-10-30T08:31:50;18.20;99.90
1179;DHT22;578;48.408;10.004;2022-10-30T08:34:17;18.40;99.90
1179;DHT22;578;48.408;10.004;2022-10-30T08:36:46;18.30;99.90
1179;DHT22;578;48.408;10.004;2022-10-30T08:39:14;18.30;99.90
1179;DHT22;578;48.408;10.004;2022-10-30T08:41:41;17.80;99.90
1179;DHT22;578;48.408;10.004;2022-10-30T08:44:08;17.20;99.90
1179;DHT22;578;48.408;10.004;2022-10-30T08:46:34;17.20;99.90
1179;DHT22;578;48.408;10.004;2022-10-30T08:49:01;17.20;99.90
1179;DHT22;578;48.408;10.004;2022-10-30T08:51:31;17.20;99.90
1179;DHT22;578;48.408;10.004;2022-10-30T08:53:58;17.20;99.90
1179;DHT22;578;48.408;10.004;2022-10-30T08:56:26;17.30;99.90
1179;DHT22;578;48.408;10.004;2022-10-30T08:58:52;17.50;99.90
1179;DHT22;578;48.408;10.004;2022-10-30T09:01:19;17.50;99.90
1179;DHT22;578;48.408;10.004;2022-10-30T09:03:46;17.50;99.90
1179;DHT22;578;48.408;10.004;2022-10-30T09:06:13;17.50;99.90
1179;DHT22;578;48.408;10.004;2022-10-30T09:08:39;17.50;99.90
1179;DHT22;578;48.408;10.004;2022-10-30T09:11:06;17.50;99.90
1179;DHT22;578;48.408;10.004;2022-10-30T09:13:34;17.70;99.90
1179;DHT22;578;48.408;10.004;2022-10-30T09:16:01;17.40;99.90
1179;DHT22;578;48.408;10.004;2022-10-30T09:18:28;17.50;99.90
1179;DHT22;578;48.408;10.004;2022-10-30T09:20:55;17.50;99.90
1179;DHT22;578;48.408;10.004;2022-10-30T09:23:22;17.80;99.90
1179;DHT22;578;48.408;10.004;2022-10-30T09:25:49;17.70;99.90
1179;DHT22;578;48.408;10.004;2022-10-30T09:28:15;17.70;99.90
1179;DHT22;578;48.408;10.004;2022-10-30T09:30:43;17.50;99.90
1179;DHT22;578;48.408;10.004;2022-10-30T09:33:10;17.60;99.90
1179;DHT22;578;48.408;10.004;2022-10-30T09:35:37;17.30;99.90
1179;DHT22;578;48.408;10.004;2022-10-30T09:38:03;17.40;99.90
1179;DHT22;578;48.408;10.004;2022-10-30T09:40:42;17.40;99.90
1179;DHT22;578;48.408;10.004;2022-10-30T09:43:18;17.50;99.90
1179;DHT22;578;48.408;10.004;2022-10-30T09:46:13;17.30;99.90
1179;DHT22;578;48.408;10.004;2022-10-30T09:49:06;17.40;99.90
1179;DHT22;578;48.408;10.004;2022-10-30T09:51:54;17.20;99.90
1179;DHT22;578;48.408;10.004;2022-10-30T09:54:33;16.90;99.90
1179;DHT22;578;48.408;10.004;2022-10-30T09:57:05;17.10;99.90
1179;DHT22;578;48.408;10.004;2022-10-30T09:59:42;17.50;99.90
1179;DHT22;578;48.408;10.004;2022-10-30T10:02:27;17.50;99.90
1179;DHT22;578;48.408;10.004;2022-10-30T10:04:58;17.00;99.90
1179;DHT22;578;48.408;10.004;2022-10-30T10:07:28;17.30;99.90
1179;DHT22;578;48.408;10.004;2022-10-30T10:10:00;17.50;99.90
1179;DHT22;578;48.408;10.004;2022-10-30T10:12:32;17.50;99.90
1179;DHT22;578;48.408;10.004;2022-10-30T10:15:05;17.70;99.90
1179;DHT22;578;48.408;10.004;2022-10-30T10:17:39;17.80;99.90
1179;DHT22;578;48.408;10.004;2022-10-30T10:20:14;17.80;99.90
1179;DHT22;578;48.408;10.004;2022-10-30T10:22:46;17.70;99.90
1179;DHT22;578;48.408;10.004;2022-10-30T10:25:15;17.70;99.90
1179;DHT22;578;48.408;10.004;2022-10-30T10:27:50;17.70;99.90
1179;DHT22;578;48.408;10.004;2022-10-30T10:30:19;17.70;99.90
1179;DHT22;578;48.408;10.004;2022-10-30T10:33:06;18.20;99.90
1179;DHT22;578;48.408;10.004;2022-10-30T10:35:46;18.20;99.90
1179;DHT22;578;48.408;10.004;2022-10-30T10:38:24;18.30;99.90
1179;DHT22;578;48.408;10.004;2022-10-30T10:41:01;18.40;99.90
1179;DHT22;578;48.408;10.004;2022-10-30T10:43:39;18.40;99.90
1179;DHT22;578;48.408;10.004;2022-10-30T10:46:25;18.40;99.90
1179;DHT22;578;48.408;10.004;2022-10-30T10:49:07;18.60;99.90
1179;DHT22;578;48.408;10.004;2022-10-30T10:51:41;18.70;99.90
1179;DHT22;578;48.408;10.004;2022-10-30T10:54:11;18.70;99.90
1179;DHT22;578;48.408;10.004;2022-10-30T10:56:44;18.80;99.90
1179;DHT22;578;48.408;10.004;2022-10-30T10:59:15;18.80;99.90
1179;DHT22;578;48.408;10.004;2022-10-30T11:01:44;19.00;99.90
1179;DHT22;578;48.408;10.004;2022-10-30T11:04:23;19.10;99.90
1179;DHT22;578;48.408;10.004;2022-10-30T11:06:53;19.10;99.90
1179;DHT22;578;48.408;10.004;2022-10-30T11:09:22;19.40;99.90
1179;DHT22;578;48.408;10.004;2022-10-30T11:11:51;19.60;99.90
1179;DHT22;578;48.408;10.004;2022-10-30T11:14:19;19.50;99.90
1179;DHT22;578;48.408;10.004;2022-10-30T11:16:53;19.50;99.90
1179;DHT22;578;48.408;10.004;2022-10-30T11:19:27;19.70;99.90
1179;DHT22;578;48.408;10.004;2022-10-30T11:21:55;19.60;99.90
1179;DHT22;578;48.408;10.004;2022-10-30T11:24:28;19.80;99.90
1179;DHT22;578;48.408;10.004;2022-10-30T11:26:57;20.00;99.90
1179;DHT22;578;48.408;10.004;2022-10-30T11:29:25;20.10;99.60
1179;DHT22;578;48.408;10.004;2022-10-30T11:32:00;20.30;99.90
1179;DHT22;578;48.408;10.004;2022-10-30T11:34:33;20.20;97.30
1179;DHT22;578;48.408;10.004;2022-10-30T11:37:00;20.20;97.30
1179;DHT22;578;48.408;10.004;2022-10-30T11:39:29;20.20;98.00
1179;DHT22;578;48.408;10.004;2022-10-30T11:42:03;20.20;98.00
1179;DHT22;578;48.408;10.004;2022-10-30T11:44:34;20.40;96.30
1179;DHT22;578;48.408;10.004;2022-10-30T11:47:01;20.50;97.70
1179;DHT22;578;48.408;10.004;2022-10-30T11:49:41;20.70;96.40
1179;DHT22;578;48.408;10.004;2022-10-30T11:52:11;20.60;95.90
1179;DHT22;578;48.408;10.004;2022-10-30T11:54:41;20.60;95.90
1179;DHT22;578;48.408;10.004;2022-10-30T11:57:20;20.70;95.00
1179;DHT22;578;48.408;10.004;2022-10-30T11:59:48;20.70;95.40
1179;DHT22;578;48.408;10.004;2022-10-30T12:02:21;20.60;93.80
1179;DHT22;578;48.408;10.004;2022-10-30T12:04:53;20.60;94.60
1179;DHT22;578;48.408;10.004;2022-10-30T12:07:24;20.80;93.60
1179;DHT22;578;48.408;10.004;2022-10-30T12:09:52;21.00;92.70
1179;DHT22;578;48.408;10.004;2022-10-30T12:12:21;21.10;92.90
1179;DHT22;578;48.408;10.004;2022-10-30T12:14:50;21.30;91.60
1179;DHT22;578;48.408;10.004;2022-10-30T12:17:18;21.20;92.20
1179;DHT22;578;48.408;10.004;2022-10-30T12:19:48;21.20;91.70
1179;DHT22;578;48.408;10.004;2022-10-30T12:22:29;21.10;91.10
1179;DHT22;578;48.408;10.004;2022-10-30T12:24:58;21.10;91.10
1179;DHT22;578;48.408;10.004;2022-10-30T12:27:25;21.20;85.60
1179;DHT22;578;48.408;10.004;2022-10-30T12:30:04;21.30;85.60
1179;DHT22;578;48.408;10.004;2022-10-30T12:32:37;21.40;86.50
1179;DHT22;578;48.408;10.004;2022-10-30T12:35:21;21.50;90.50
1179;DHT22;578;48.408;10.004;2022-10-30T12:37:53;21.60;86.00
1179;DHT22;578;48.408;10.004;2022-10-30T12:40:24;21.70;86.80
1179;DHT22;578;48.408;10.004;2022-10-30T12:42:57;21.50;89.40
1179;DHT22;578;48.408;10.004;2022-10-30T12:45:31;21.70;90.90
1179;DHT22;578;48.408;10.004;2022-10-30T12:48:02;21.70;92.20
1179;DHT22;578;48.408;10.004;2022-10-30T12:50:39;21.50;91.70
1179;DHT22;578;48.408;10.004;2022-10-30T12:53:26;21.30;92.30
1179;DHT22;578;48.408;10.004;2022-10-30T12:55:57;21.40;91.20
1179;DHT22;578;48.408;10.004;2022-10-30T12:58:32;21.60;90.30
1179;DHT22;578;48.408;10.004;2022-10-30T13:01:11;21.80;87.40
1179;DHT22;578;48.408;10.004;2022-10-30T13:03:45;21.70;89.40
1179;DHT22;578;48.408;10.004;2022-10-30T13:06:16;21.70;87.80
1179;DHT22;578;48.408;10.004;2022-10-30T13:08:56;21.80;87.90
1179;DHT22;578;48.408;10.004;2022-10-30T13:11:31;21.80;87.30
1179;DHT22;578;48.408;10.004;2022-10-30T13:14:02;21.90;85.30
1179;DHT22;578;48.408;10.004;2022-10-30T13:16:31;22.00;85.60
1179;DHT22;578;48.408;10.004;2022-10-30T13:18:59;22.00;86.50
1179;DHT22;578;48.408;10.004;2022-10-30T13:21:30;21.90;87.70
1179;DHT22;578;48.408;10.004;2022-10-30T13:24:03;21.90;87.50
1179;DHT22;578;48.408;10.004;2022-10-30T13:26:37;21.60;90.70
1179;DHT22;578;48.408;10.004;2022-10-30T13:29:14;22.00;84.00
1179;DHT22;578;48.408;10.004;2022-10-30T13:31:55;22.00;81.20
1179;DHT22;578;48.408;10.004;2022-10-30T13:34:37;21.90;81.40
1179;DHT22;578;48.408;10.004;2022-10-30T13:37:13;21.90;78.70
1179;DHT22;578;48.408;10.004;2022-10-30T13:39:49;22.00;79.30
1179;DHT22;578;48.408;10.004;2022-10-30T13:42:33;22.10;81.50
1179;DHT22;578;48.408;10.004;2022-10-30T13:45:18;21.80;83.40
1179;DHT22;578;48.408;10.004;2022-10-30T13:47:54;21.90;81.80
1179;DHT22;578;48.408;10.004;2022-10-30T13:50:36;21.80;82.90
1179;DHT22;578;48.408;10.004;2022-10-30T13:53:08;22.10;82.50
1179;DHT22;578;48.408;10.004;2022-10-30T13:55:40;22.10;81.10
1179;DHT22;578;48.408;10.004;2022-10-30T13:58:14;22.00;81.80
1179;DHT22;578;48.408;10.004;2022-10-30T14:00:52;21.90;82.00
1179;DHT22;578;48.408;10.004;2022-10-30T14:03:29;21.90;82.40
1179;DHT22;578;48.408;10.004;2022-10-30T14:06:05;21.90;83.60
1179;DHT22;578;48.408;10.004;2022-10-30T14:08:37;21.80;84.40
1179;DHT22;578;48.408;10.004;2022-10-30T14:11:11;21.60;86.40
1179;DHT22;578;48.408;10.004;2022-10-30T14:13:48;21.60;85.80
1179;DHT22;578;48.408;10.004;2022-10-30T14:16:39;21.50;87.10
1179;DHT22;578;48.408;10.004;2022-10-30T14:19:08;21.50;90.60
1179;DHT22;578;48.408;10.004;2022-10-30T14:21:51;21.20;94.20
1179;DHT22;578;48.408;10.004;2022-10-30T14:24:23;21.00;92.90
1179;DHT22;578;48.408;10.004;2022-10-30T14:27:08;21.10;92.20
1179;DHT22;578;48.408;10.004;2022-10-30T14:29:46;20.80;96.50
1179;DHT22;578;48.408;10.004;2022-10-30T14:32:40;21.00;94.30
1179;DHT22;578;48.408;10.004;2022-10-30T14:35:32;20.60;96.80
1179;DHT22;578;48.408;10.004;2022-10-30T14:38:24;20.40;98.60
1179;DHT22;578;48.408;10.004;2022-10-30T14:41:04;20.30;99.90
1179;DHT22;578;48.408;10.004;2022-10-30T14:43:38;20.10;99.90
1179;DHT22;578;48.408;10.004;2022-10-30T14:46:14;19.90;99.90
1179;DHT22;578;48.408;10.004;2022-10-30T14:48:47;19.80;99.90
1179;DHT22;578;48.408;10.004;2022-10-30T14:51:21;19.60;99.90
1179;DHT22;578;48.408;10.004;2022-10-30T14:53:58;19.40;99.90
1179;DHT22;578;48.408;10.004;2022-10-30T14:56:33;19.00;99.90
1179;DHT22;578;48.408;10.004;2022-10-30T14:59:22;18.70;99.90
1179;DHT22;578;48.408;10.004;2022-10-30T15:01:55;18.50;99.90
1179;DHT22;578;48.408;10.004;2022-10-30T15:04:34;18.30;99.90
1179;DHT22;578;48.408;10.004;2022-10-30T15:07:07;18.10;99.90
1179;DHT22;578;48.408;10.004;2022-10-30T15:09:43;17.90;99.90
1179;DHT22;578;48.408;10.004;2022-10-30T15:12:22;17.80;99.90
1179;DHT22;578;48.408;10.004;2022-10-30T15:14:55;17.50;99.90
1179;DHT22;578;48.408;10.004;2022-10-30T15:17:27;17.40;99.90
1179;DHT22;578;48.408;10.004;2022-10-30T15:19:54;17.20;99.90
1179;DHT22;578;48.408;10.004;2022-10-30T15:22:22;17.00;99.90
1179;DHT22;578;48.408;10.004;2022-10-30T15:24:51;16.80;99.90
1179;DHT22;578;48.408;10.004;2022-10-30T15:27:20;16.60;99.90
1179;DHT22;578;48.408;10.004;2022-10-30T15:29:50;16.50;99.90
1179;DHT22;578;48.408;10.004;2022-10-30T15:32:20;16.40;99.90
1179;DHT22;578;48.408;10.004;2022-10-30T15:34:55;16.40;99.90
1179;DHT22;578;48.408;10.004;2022-10-30T15:37:24;16.30;99.90
1179;DHT22;578;48.408;10.004;2022-10-30T15:40:09;16.20;99.90
1179;DHT22;578;48.408;10.004;2022-10-30T15:42:37;16.10;99.90
1179;DHT22;578;48.408;10.004;2022-10-30T15:45:05;15.90;99.90
1179;DHT22;578;48.408;10.004;2022-10-30T15:47:44;15.90;99.90
1179;DHT22;578;48.408;10.004;2022-10-30T15:50:11;15.70;99.90
1179;DHT22;578;48.408;10.004;2022-10-30T15:52:41;15.60;99.90
1179;DHT22;578;48.408;10.004;2022-10-30T15:55:12;15.50;99.90
1179;DHT22;578;48.408;10.004;2022-10-30T15:57:43;15.30;99.90
1179;DHT22;578;48.408;10.004;2022-10-30T16:00:19;15.20;99.90
1179;DHT22;578;48.408;10.004;2022-10-30T16:02:48;15.20;99.90
1179;DHT22;578;48.408;10.004;2022-10-30T16:05:24;15.10;99.90
1179;DHT22;578;48.408;10.004;2022-10-30T16:07:54;14.90;99.90
1179;DHT22;578;48.408;10.004;2022-10-30T16:10:24;14.80;99.90
1179;DHT22;578;48.408;10.004;2022-10-30T16:12:51;14.70;99.90
1179;DHT22;578;48.408;10.004;2022-10-30T16:15:24;14.60;99.90
1179;DHT22;578;48.408;10.004;2022-10-30T16:18:03;14.50;99.90
1179;DHT22;578;48.408;10.004;2022-10-30T16:20:32;14.30;99.90
1179;DHT22;578;48.408;10.004;2022-10-30T16:22:59;14.10;99.90
1179;DHT22;578;48.408;10.004;2022-10-30T16:25:26;14.10;99.90
1179;DHT22;578;48.408;10.004;2022-10-30T16:27:53;14.00;99.90
1179;DHT22;578;48.408;10.004;2022-10-30T16:30:21;13.90;99.90